Time;durP1;ratioP1;P1;durP2;ratioP2;P2;SDS_P1;SDS_P2;PMS_P1;PMS_P2;Temp;Humidity;BMP_temperature;BMP_pressure;BME280_temperature;BME280_humidity;BME280_pressure;Samples;Min_cycle;Max_cycle;Signal;HPM_P1;HPM_P2
2023/04/17 00:01:37;;;;;;;56.75;21.75;;;8.20;99.90;;;;;;5056005;28;20041;-78
2023/04/17 00:04:04;;;;;;;58.65;22.83;;;8.10;99.90;;;;;;5056542;28;20123;-77
2023/04/17 00:06:32;;;;;;;56.00;20.42;;;8.10;99.90;;;;;;5056277;28;20090;-77
2023/04/17 00:08:58;;;;;;;63.15;23.48;;;8.10;99.90;;;;;;5055727;28;20068;-80
2023/04/17 00:11:25;;;;;;;56.35;20.70;;;8.10;99.90;;;;;;5021775;28;20097;-80
2023/04/17 00:13:51;;;;;;;61.47;22.87;;;8.10;99.90;;;;;;5056517;28;20095;-78
2023/04/17 00:16:16;;;;;;;59.58;22.23;;;8.10;99.90;;;;;;5055659;28;20048;-77
2023/04/17 00:18:42;;;;;;;63.47;23.95;;;8.00;99.90;;;;;;5038450;28;20044;-77
2023/04/17 00:21:08;;;;;;;73.20;23.83;;;8.00;99.90;;;;;;5055700;28;20064;-77
2023/04/17 00:23:34;;;;;;;60.47;22.80;;;8.00;99.90;;;;;;5054588;28;20067;-76
2023/04/17 00:26:00;;;;;;;72.07;24.45;;;8.10;99.90;;;;;;5054586;28;20239;-80
2023/04/17 00:28:25;;;;;;;68.70;22.77;;;8.00;99.90;;;;;;5055606;28;20414;-79
2023/04/17 00:30:51;;;;;;;71.40;23.92;;;8.10;99.90;;;;;;5037824;28;20045;-78
2023/04/17 00:33:17;;;;;;;66.82;22.60;;;8.10;99.90;;;;;;5022207;28;20106;-78
2023/04/17 00:35:43;;;;;;;70.45;25.17;;;8.10;99.90;;;;;;5054290;28;20049;-77
2023/04/17 00:38:08;;;;;;;66.53;22.88;;;8.10;99.90;;;;;;5055218;28;20084;-78
2023/04/17 00:40:35;;;;;;;67.43;23.33;;;8.10;99.90;;;;;;5055161;28;20389;-78
2023/04/17 00:43:05;;;;;;;64.27;22.33;;;8.20;99.90;;;;;;5038408;28;20053;-77
2023/04/17 00:45:31;;;;;;;61.33;22.52;;;8.10;99.90;;;;;;5055033;28;20366;-78
2023/04/17 00:47:58;;;;;;;68.15;23.40;;;8.10;99.90;;;;;;5055827;28;20123;-79
2023/04/17 00:50:27;;;;;;;65.68;24.05;;;8.20;99.90;;;;;;5055941;28;20133;-78
2023/04/17 00:52:53;;;;;;;66.38;24.33;;;8.10;99.90;;;;;;5055100;28;20401;-79
2023/04/17 00:55:19;;;;;;;64.22;23.10;;;8.10;99.90;;;;;;5054998;28;20045;-78
2023/04/17 00:57:48;;;;;;;75.40;28.17;;;8.10;99.90;;;;;;5053956;28;20052;-77
2023/04/17 01:00:15;;;;;;;64.10;23.83;;;8.10;99.90;;;;;;5038307;28;20045;-77
2023/04/17 01:02:41;;;;;;;74.65;24.98;;;8.00;99.90;;;;;;5055337;28;20381;-78
2023/04/17 01:05:07;;;;;;;79.22;27.40;;;8.10;99.90;;;;;;5054060;28;20041;-77
2023/04/17 01:07:33;;;;;;;69.45;25.40;;;8.10;99.90;;;;;;5037275;28;20510;-79
2023/04/17 01:09:59;;;;;;;70.40;25.75;;;8.00;99.90;;;;;;5054287;28;20089;-78
2023/04/17 01:12:25;;;;;;;76.03;27.70;;;8.00;99.90;;;;;;5054852;28;20085;-78
2023/04/17 01:14:55;;;;;;;75.72;27.88;;;8.10;99.90;;;;;;5055592;28;20045;-77
2023/04/17 01:17:24;;;;;;;77.72;27.48;;;8.00;99.90;;;;;;5054471;28;20405;-77
2023/04/17 01:19:51;;;;;;;77.35;26.85;;;8.00;99.90;;;;;;5053286;28;20053;-78
2023/04/17 01:22:19;;;;;;;67.57;25.33;;;8.10;99.90;;;;;;5054758;28;20079;-78
2023/04/17 01:24:46;;;;;;;65.95;24.65;;;8.10;99.90;;;;;;5053639;28;20037;-78
2023/04/17 01:27:14;;;;;;;71.60;24.17;;;8.00;99.90;;;;;;5054593;28;20041;-77
2023/04/17 01:29:41;;;;;;;61.75;23.10;;;8.10;99.90;;;;;;5054599;28;20451;-78
2023/04/17 01:32:07;;;;;;;73.68;29.73;;;8.20;99.90;;;;;;5036782;28;20131;-77
2023/04/17 01:34:33;;;;;;;64.18;24.55;;;8.20;99.90;;;;;;5054006;28;20095;-77
2023/04/17 01:36:59;;;;;;;65.53;24.20;;;8.10;99.90;;;;;;5053781;28;20042;-77
2023/04/17 01:39:25;;;;;;;67.32;24.35;;;8.10;99.90;;;;;;5036904;28;20528;-76
2023/04/17 01:41:51;;;;;;;64.83;21.27;;;8.10;99.90;;;;;;5054400;28;20052;-79
2023/04/17 01:44:17;;;;;;;71.72;28.30;;;8.10;99.90;;;;;;5054801;28;20621;-77
2023/04/17 01:46:43;;;;;;;73.90;25.65;;;8.20;99.90;;;;;;5054589;28;20041;-77
2023/04/17 01:49:09;;;;;;;65.88;24.33;;;8.10;99.90;;;;;;5054223;28;20542;-77
2023/04/17 01:51:35;;;;;;;60.17;22.75;;;8.10;99.90;;;;;;5054080;28;20435;-78
2023/04/17 01:54:00;;;;;;;66.03;23.40;;;8.20;99.90;;;;;;5053198;28;20473;-79
2023/04/17 01:56:26;;;;;;;72.32;25.35;;;8.20;99.90;;;;;;5053103;28;20481;-79
2023/04/17 01:58:53;;;;;;;65.70;24.08;;;8.10;99.90;;;;;;5053096;28;20053;-76
2023/04/17 02:01:18;;;;;;;62.83;23.40;;;8.10;99.90;;;;;;5053561;28;20056;-76
2023/04/17 02:03:44;;;;;;;80.03;31.33;;;8.10;99.90;;;;;;5052701;28;20405;-77
2023/04/17 02:06:10;;;;;;;68.88;25.05;;;8.10;99.90;;;;;;5053681;28;20040;-78
2023/04/17 02:08:36;;;;;;;70.10;25.35;;;8.10;99.90;;;;;;5053413;28;20131;-78
2023/04/17 02:11:02;;;;;;;75.28;25.08;;;8.10;99.90;;;;;;5036975;28;20087;-78
2023/04/17 02:13:27;;;;;;;74.93;27.20;;;8.10;99.90;;;;;;5053588;28;20045;-77
2023/04/17 02:15:53;;;;;;;69.07;26.15;;;8.10;99.90;;;;;;5052625;28;20096;-78
2023/04/17 02:18:19;;;;;;;70.57;27.00;;;8.10;99.90;;;;;;5052237;28;20056;-78
2023/04/17 02:20:45;;;;;;;68.60;24.83;;;8.10;99.90;;;;;;5052657;28;20045;-78
2023/04/17 02:23:11;;;;;;;67.85;23.88;;;8.20;99.90;;;;;;5053412;28;20052;-77
2023/04/17 02:25:36;;;;;;;76.47;28.80;;;8.20;99.90;;;;;;5054277;28;20045;-77
2023/04/17 02:28:02;;;;;;;66.57;25.75;;;8.20;99.90;;;;;;5053537;28;20041;-78
2023/04/17 02:30:28;;;;;;;77.95;25.67;;;8.10;99.90;;;;;;5053539;28;20040;-77
2023/04/17 02:32:54;;;;;;;92.03;35.08;;;8.10;99.90;;;;;;5053453;28;20045;-78
2023/04/17 02:35:22;;;;;;;72.90;25.30;;;8.00;99.90;;;;;;5052315;28;20041;-78
2023/04/17 02:37:48;;;;;;;70.43;25.73;;;8.10;99.90;;;;;;5053790;28;20055;-81
2023/04/17 02:40:14;;;;;;;73.68;26.63;;;8.10;99.90;;;;;;5053114;28;20045;-77
2023/04/17 02:42:40;;;;;;;88.23;28.67;;;8.10;99.90;;;;;;5053284;28;20111;-76
2023/04/17 02:45:06;;;;;;;82.95;27.88;;;8.10;99.90;;;;;;5054019;28;20470;-77
2023/04/17 02:47:32;;;;;;;80.87;27.97;;;8.10;99.90;;;;;;5052131;28;20048;-78
2023/04/17 02:49:59;;;;;;;76.70;26.13;;;8.10;99.90;;;;;;5052206;28;20540;-77
2023/04/17 02:52:29;;;;;;;78.25;27.83;;;8.10;99.90;;;;;;5035612;28;20098;-75
2023/04/17 02:54:55;;;;;;;79.97;26.80;;;8.10;99.90;;;;;;5053218;28;20048;-76
2023/04/17 02:57:22;;;;;;;85.20;27.42;;;8.10;99.90;;;;;;5053475;28;20080;-79
2023/04/17 02:59:48;;;;;;;81.72;27.33;;;8.10;99.90;;;;;;5053697;28;20060;-78
2023/04/17 03:02:14;;;;;;;80.35;25.60;;;8.10;99.90;;;;;;5052417;28;20049;-77
2023/04/17 03:04:41;;;;;;;79.57;28.40;;;8.10;99.90;;;;;;5035749;28;20087;-78
2023/04/17 03:07:09;;;;;;;78.80;27.65;;;8.10;99.90;;;;;;5053077;28;20430;-76
2023/04/17 03:09:35;;;;;;;79.40;27.42;;;8.10;99.90;;;;;;5052992;28;20049;-78
2023/04/17 03:12:01;;;;;;;81.15;27.58;;;8.20;99.90;;;;;;5053176;28;20075;-78
2023/04/17 03:14:27;;;;;;;92.45;33.78;;;8.20;99.90;;;;;;5052795;28;20106;-80
2023/04/17 03:16:53;;;;;;;86.97;29.05;;;8.10;99.90;;;;;;5053073;28;20048;-78
2023/04/17 03:19:18;;;;;;;78.35;28.05;;;8.10;99.90;;;;;;5053109;28;20049;-77
2023/04/17 03:21:45;;;;;;;78.45;26.83;;;8.10;99.90;;;;;;5052291;28;20073;-78
2023/04/17 03:24:11;;;;;;;81.07;27.30;;;8.10;99.90;;;;;;5052081;28;20041;-79
2023/04/17 03:26:37;;;;;;;75.22;26.92;;;8.20;99.90;;;;;;5053529;28;20049;-79
2023/04/17 03:29:03;;;;;;;79.88;27.75;;;8.10;99.90;;;;;;5056913;28;20440;-80
2023/04/17 03:31:29;;;;;;;93.55;33.22;;;8.10;99.90;;;;;;5058358;28;20049;-77
2023/04/17 03:33:54;;;;;;;94.07;31.73;;;8.00;99.90;;;;;;5057238;28;20052;-75
2023/04/17 03:36:20;;;;;;;79.00;27.55;;;8.00;99.90;;;;;;5057750;28;20133;-77
2023/04/17 03:38:46;;;;;;;73.13;26.52;;;8.00;99.90;;;;;;5058220;28;20061;-79
2023/04/17 03:41:11;;;;;;;77.20;28.20;;;8.00;99.90;;;;;;5056162;28;20040;-78
2023/04/17 03:43:37;;;;;;;75.45;25.88;;;8.00;99.90;;;;;;5055887;28;20037;-77
2023/04/17 03:46:03;;;;;;;82.95;29.45;;;8.00;99.90;;;;;;5057466;28;20091;-79
2023/04/17 03:48:29;;;;;;;80.38;28.15;;;8.10;99.90;;;;;;5056529;28;20052;-78
2023/04/17 03:50:55;;;;;;;77.25;28.13;;;8.00;99.90;;;;;;5056122;28;20060;-77
2023/04/17 03:53:21;;;;;;;76.50;26.92;;;8.00;99.90;;;;;;5055411;28;20048;-78
2023/04/17 03:55:47;;;;;;;74.68;26.15;;;8.00;99.90;;;;;;5055533;28;20500;-81
2023/04/17 03:58:13;;;;;;;77.47;27.67;;;8.10;99.90;;;;;;5056135;28;20045;-79
2023/04/17 04:00:38;;;;;;;75.97;26.65;;;8.10;99.90;;;;;;5056007;28;20051;-78
2023/04/17 04:03:04;;;;;;;81.20;28.48;;;8.10;99.90;;;;;;5056250;28;20088;-78
2023/04/17 04:05:30;;;;;;;84.97;28.67;;;8.10;99.90;;;;;;5056419;28;20091;-78
2023/04/17 04:07:56;;;;;;;79.45;28.67;;;8.00;99.90;;;;;;5056399;28;20529;-79
2023/04/17 04:10:22;;;;;;;85.15;27.42;;;8.10;99.90;;;;;;5054675;28;20448;-78
2023/04/17 04:12:47;;;;;;;83.30;28.10;;;8.10;99.90;;;;;;5054533;28;20052;-78
2023/04/17 04:15:13;;;;;;;80.60;27.73;;;8.00;99.90;;;;;;5022615;28;20053;-78
2023/04/17 04:17:39;;;;;;;95.18;35.63;;;8.00;99.90;;;;;;5056033;28;20041;-78
2023/04/17 04:20:07;;;;;;;96.15;34.13;;;7.90;99.90;;;;;;5055785;28;20045;-77
2023/04/17 04:22:33;;;;;;;91.07;32.75;;;7.80;99.90;;;;;;5055201;28;20074;-77
2023/04/17 04:24:59;;;;;;;91.00;30.23;;;7.90;99.90;;;;;;5055334;28;20045;-80
2023/04/17 04:27:26;;;;;;;102.35;32.92;;;7.80;99.90;;;;;;5056631;28;20045;-78
2023/04/17 04:29:58;;;;;;;91.07;29.63;;;7.90;99.90;;;;;;5059515;28;20091;-76
2023/04/17 04:32:24;;;;;;;106.20;33.28;;;7.90;99.90;;;;;;5063845;28;20052;-78
2023/04/17 04:34:50;;;;;;;94.78;32.28;;;7.90;99.90;;;;;;5061988;28;20045;-77
2023/04/17 04:37:16;;;;;;;105.22;32.88;;;7.90;99.90;;;;;;5064701;28;20136;-75
2023/04/17 04:39:42;;;;;;;92.93;31.23;;;7.90;99.90;;;;;;5063076;28;20136;-77
2023/04/17 04:42:08;;;;;;;98.47;35.83;;;7.90;99.90;;;;;;5061992;28;20041;-77
2023/04/17 04:44:36;;;;;;;94.60;31.20;;;7.90;99.90;;;;;;5059674;28;20040;-78
2023/04/17 04:47:01;;;;;;;;;;;7.90;99.90;;;;;;5059814;28;20462;-78
2023/04/17 04:49:27;;;;;;;82.83;27.07;;;7.90;99.90;;;;;;5057560;28;19921;-78
2023/04/17 04:51:53;;;;;;;89.85;27.10;;;8.00;99.90;;;;;;5055274;28;20037;-76
2023/04/17 04:54:18;;;;;;;91.20;29.35;;;8.00;99.90;;;;;;5053807;28;20115;-79
2023/04/17 04:56:44;;;;;;;87.53;28.40;;;8.10;99.90;;;;;;5055406;28;20041;-77
2023/04/17 04:59:10;;;;;;;84.75;27.92;;;8.00;99.90;;;;;;5055053;28;20045;-77
2023/04/17 05:01:38;;;;;;;80.82;26.92;;;8.00;99.90;;;;;;5054377;28;20386;-79
2023/04/17 05:04:04;;;;;;;96.15;31.63;;;8.10;99.90;;;;;;5037646;28;20049;-77
2023/04/17 05:06:30;;;;;;;79.57;26.60;;;8.10;99.90;;;;;;5055468;28;20103;-77
2023/04/17 05:08:57;;;;;;;88.93;31.73;;;8.10;99.90;;;;;;5055361;28;20052;-77
2023/04/17 05:11:22;;;;;;;77.20;26.75;;;8.00;99.90;;;;;;5054616;28;20101;-76
2023/04/17 05:13:48;;;;;;;82.35;26.77;;;8.10;99.90;;;;;;5054189;28;20045;-77
2023/04/17 05:16:14;;;;;;;72.85;26.48;;;8.10;99.90;;;;;;5053820;28;20132;-80
2023/04/17 05:18:39;;;;;;;80.53;26.35;;;8.10;99.90;;;;;;5053796;28;20049;-76
2023/04/17 05:21:05;;;;;;;74.18;24.70;;;8.10;99.90;;;;;;5055155;28;20064;-79
2023/04/17 05:23:31;;;;;;;73.82;26.30;;;8.20;99.90;;;;;;5053682;28;20049;-78
2023/04/17 05:25:57;;;;;;;72.55;25.55;;;8.20;99.90;;;;;;5055040;28;20060;-80
2023/04/17 05:28:23;;;;;;;88.40;34.10;;;8.20;99.90;;;;;;5054513;28;20053;-77
2023/04/17 05:30:48;;;;;;;67.55;23.73;;;8.10;99.90;;;;;;5055751;28;20481;-76
2023/04/17 05:33:14;;;;;;;73.57;26.13;;;8.10;99.90;;;;;;5054718;28;20132;-77
2023/04/17 05:35:40;;;;;;;73.35;25.60;;;8.10;99.90;;;;;;5054978;28;20154;-78
2023/04/17 05:38:06;;;;;;;71.15;26.38;;;8.20;99.90;;;;;;5053568;28;20052;-80
2023/04/17 05:40:32;;;;;;;79.22;30.52;;;8.20;99.90;;;;;;5020474;28;20592;-78
2023/04/17 05:43:08;;;;;;;72.30;26.60;;;8.10;99.90;;;;;;5054921;28;20088;-78
2023/04/17 05:45:34;;;;;;;70.80;25.33;;;8.00;99.90;;;;;;5036236;28;20151;-77
2023/04/17 05:47:59;;;;;;;74.60;25.27;;;8.10;99.90;;;;;;5054737;28;20127;-77
2023/04/17 05:50:25;;;;;;;73.28;24.15;;;8.20;99.90;;;;;;5054470;28;20473;-77
2023/04/17 05:52:51;;;;;;;69.63;23.63;;;8.20;99.90;;;;;;5054064;28;20428;-80
2023/04/17 05:55:18;;;;;;;67.45;24.17;;;8.30;99.90;;;;;;5054007;28;20473;-77
2023/04/17 05:57:44;;;;;;;;;;;8.30;99.90;;;;;;5054614;28;20049;-77
2023/04/17 06:00:11;;;;;;;61.03;22.33;;;8.20;99.90;;;;;;5054614;28;19944;-77
2023/04/17 06:02:39;;;;;;;71.00;24.08;;;8.20;99.90;;;;;;5054289;28;20088;-78
2023/04/17 06:05:06;;;;;;;70.90;23.75;;;8.20;99.90;;;;;;5053257;28;20135;-77
2023/04/17 06:07:37;;;;;;;74.72;27.42;;;8.20;99.90;;;;;;5054165;28;20041;-77
2023/04/17 06:10:04;;;;;;;64.47;23.40;;;8.20;99.90;;;;;;5054538;28;20377;-79
2023/04/17 06:12:30;;;;;;;74.15;29.20;;;8.20;99.90;;;;;;5053635;28;20057;-77
2023/04/17 06:14:56;;;;;;;61.53;22.02;;;8.10;99.90;;;;;;5053706;28;20045;-77
2023/04/17 06:17:22;;;;;;;62.95;23.05;;;8.10;99.90;;;;;;5052562;28;20053;-78
2023/04/17 06:19:48;;;;;;;57.80;21.33;;;8.20;99.90;;;;;;5052142;28;20107;-77
2023/04/17 06:22:13;;;;;;;58.63;22.58;;;8.30;99.90;;;;;;5053621;28;20052;-76
2023/04/17 06:24:39;;;;;;;61.78;22.90;;;8.30;99.90;;;;;;5053506;28;20052;-78
2023/04/17 06:27:05;;;;;;;60.13;23.15;;;8.30;99.90;;;;;;5052729;28;20060;-77
2023/04/17 06:29:30;;;;;;;67.00;28.40;;;8.30;99.90;;;;;;5054219;28;20091;-80
2023/04/17 06:31:56;;;;;;;62.38;23.40;;;8.20;99.90;;;;;;5053063;28;20057;-78
2023/04/17 06:34:22;;;;;;;66.50;26.05;;;8.40;99.90;;;;;;5053670;28;20465;-78
2023/04/17 06:36:48;;;;;;;61.22;23.35;;;8.40;99.90;;;;;;5053322;28;20512;-77
2023/04/17 06:39:13;;;;;;;55.72;21.88;;;8.60;99.90;;;;;;5052783;28;20049;-78
2023/04/17 06:41:39;;;;;;;51.70;21.58;;;8.70;99.90;;;;;;5054051;28;20077;-77
2023/04/17 06:44:05;;;;;;;58.58;23.02;;;8.70;99.90;;;;;;5053496;28;20504;-77
2023/04/17 06:46:31;;;;;;;54.25;22.42;;;8.80;99.90;;;;;;5052030;28;20044;-77
2023/04/17 06:48:58;;;;;;;59.20;23.85;;;8.70;99.90;;;;;;5054270;28;20044;-77
2023/04/17 06:51:27;;;;;;;;;;;8.90;99.90;;;;;;5054072;28;20071;-77
2023/04/17 06:53:53;;;;;;;52.63;21.90;;;9.00;99.90;;;;;;5054564;28;19927;-78
2023/04/17 06:56:19;;;;;;;61.97;25.17;;;9.00;99.90;;;;;;5055777;28;20052;-81
2023/04/17 06:58:46;;;;;;;56.50;22.67;;;9.00;99.90;;;;;;5054307;28;20135;-78
2023/04/17 07:01:13;;;;;;;57.05;22.10;;;9.00;99.90;;;;;;5054173;28;20098;-78
2023/04/17 07:03:39;;;;;;;;;;;9.10;99.90;;;;;;5056101;28;20049;-76
2023/04/17 07:06:05;;;;;;;57.27;24.40;;;9.00;99.90;;;;;;5057938;28;20447;-80
2023/04/17 07:08:31;;;;;;;61.33;22.08;;;9.10;99.90;;;;;;5056859;28;20053;-80
2023/04/17 07:10:57;;;;;;;56.70;23.73;;;9.40;99.90;;;;;;5056812;28;20045;-78
2023/04/17 07:13:23;;;;;;;54.20;21.63;;;9.30;99.90;;;;;;5061441;28;20052;-80
2023/04/17 07:15:53;;;;;;;52.85;22.80;;;9.50;99.90;;;;;;5057584;28;20389;-78
2023/04/17 07:18:20;;;;;;;52.47;23.02;;;9.30;99.90;;;;;;5059316;28;20099;-78
2023/04/17 07:20:47;;;;;;;55.78;23.05;;;9.30;99.90;;;;;;5057373;28;20059;-78
2023/04/17 07:23:12;;;;;;;56.63;24.23;;;9.40;99.90;;;;;;5060351;28;20430;-80
2023/04/17 07:25:38;;;;;;;54.63;24.02;;;9.30;99.90;;;;;;5059198;28;20072;-78
2023/04/17 07:28:04;;;;;;;53.35;21.63;;;9.40;99.90;;;;;;5059177;28;20531;-79
2023/04/17 07:30:30;;;;;;;49.25;20.58;;;9.70;99.90;;;;;;5059053;28;20499;-78
2023/04/17 07:32:56;;;;;;;54.72;24.75;;;9.90;99.90;;;;;;5058568;28;20055;-77
2023/04/17 07:35:22;;;;;;;48.85;24.73;;;9.70;99.90;;;;;;5057819;28;20048;-77
2023/04/17 07:37:48;;;;;;;60.08;24.00;;;9.50;99.90;;;;;;5042239;28;20072;-78
2023/04/17 07:40:15;;;;;;;53.97;27.88;;;9.70;99.90;;;;;;5057146;28;20084;-77
2023/04/17 07:42:41;;;;;;;56.13;22.88;;;9.60;99.90;;;;;;5057972;28;20084;-79
2023/04/17 07:45:08;;;;;;;50.97;22.17;;;9.80;99.90;;;;;;5057659;28;20095;-80
2023/04/17 07:47:34;;;;;;;;;;;10.00;99.90;;;;;;5057611;28;20503;-79
2023/04/17 07:50:00;;;;;;;45.87;18.90;;;10.00;99.90;;;;;;5055569;28;19921;-80
2023/04/17 07:52:26;;;;;;;50.03;20.60;;;10.20;99.90;;;;;;5056288;28;20135;-76
2023/04/17 07:54:52;;;;;;;46.63;20.70;;;10.40;99.90;;;;;;5055608;28;20106;-79
2023/04/17 07:57:18;;;;;;;52.85;22.60;;;10.60;99.90;;;;;;5055382;28;20048;-79
2023/04/17 07:59:44;;;;;;;46.25;21.45;;;10.70;99.90;;;;;;5040644;28;20049;-78
2023/04/17 08:02:10;;;;;;;45.90;20.27;;;10.70;99.90;;;;;;5055531;28;20485;-78
2023/04/17 08:04:38;;;;;;;48.88;24.52;;;10.60;99.90;;;;;;5057541;28;20044;-79
2023/04/17 08:07:09;;;;;;;45.75;22.02;;;10.30;99.90;;;;;;5058967;28;20385;-78
2023/04/17 08:09:36;;;;;;;44.67;20.77;;;10.30;99.90;;;;;;5057347;28;20053;-78
2023/04/17 08:12:02;;;;;;;45.50;21.52;;;10.60;99.90;;;;;;5055399;28;20057;-78
2023/04/17 08:14:28;;;;;;;41.57;20.87;;;10.70;99.90;;;;;;5057384;28;20041;-78
2023/04/17 08:16:54;;;;;;;41.78;20.42;;;10.70;99.90;;;;;;5055651;28;20051;-79
2023/04/17 08:19:19;;;;;;;43.97;20.85;;;11.00;99.90;;;;;;5056248;28;20072;-79
2023/04/17 08:21:48;;;;;;;44.15;21.02;;;11.10;99.90;;;;;;5056911;28;20515;-79
2023/04/17 08:24:15;;;;;;;43.83;19.95;;;11.00;99.90;;;;;;5055618;28;20469;-77
2023/04/17 08:26:41;;;;;;;42.53;20.00;;;11.20;99.90;;;;;;5056079;28;20045;-79
2023/04/17 08:29:07;;;;;;;43.38;20.20;;;11.30;99.90;;;;;;5056002;28;20056;-77
2023/04/17 08:31:35;;;;;;;42.45;19.95;;;11.30;99.90;;;;;;5055459;28;20053;-81
2023/04/17 08:34:02;;;;;;;39.67;19.85;;;11.40;99.90;;;;;;5056644;28;20083;-79
2023/04/17 08:36:28;;;;;;;41.10;21.08;;;11.40;99.90;;;;;;5055537;28;20048;-76
2023/04/17 08:38:55;;;;;;;46.53;21.67;;;11.00;99.90;;;;;;5056411;28;20125;-79
2023/04/17 08:41:23;;;;;;;;;;;10.90;99.90;;;;;;5056148;28;20051;-79
2023/04/17 08:43:52;;;;;;;44.90;23.98;;;10.90;99.90;;;;;;5055329;28;19920;-77
2023/04/17 08:46:22;;;;;;;43.40;21.00;;;10.70;99.90;;;;;;5055911;28;20400;-78
2023/04/17 08:48:48;;;;;;;39.17;19.73;;;10.80;99.90;;;;;;5055224;28;20048;-79
2023/04/17 08:51:14;;;;;;;40.78;20.02;;;11.00;99.90;;;;;;5055378;28;20048;-79
2023/04/17 08:53:40;;;;;;;41.97;20.48;;;11.20;99.90;;;;;;5054472;28;20130;-79
2023/04/17 08:56:06;;;;;;;46.08;19.48;;;11.10;99.90;;;;;;5055094;28;20059;-78
2023/04/17 08:58:33;;;;;;;36.10;18.85;;;11.50;99.90;;;;;;5055881;28;20090;-79
2023/04/17 09:01:09;;;;;;;39.45;18.95;;;11.80;99.90;;;;;;5054881;28;20112;-81
2023/04/17 09:03:43;;;;;;;45.13;22.65;;;11.70;99.90;;;;;;5054718;28;20052;-77
2023/04/17 09:06:10;;;;;;;43.00;19.55;;;11.80;99.90;;;;;;5054740;28;20041;-81
2023/04/17 09:08:37;;;;;;;41.10;19.35;;;11.90;99.90;;;;;;5054854;28;20048;-78
2023/04/17 09:11:03;;;;;;;38.50;19.67;;;12.00;99.90;;;;;;5054232;28;20453;-80
2023/04/17 09:13:29;;;;;;;40.13;19.70;;;11.90;99.90;;;;;;5054638;28;20053;-78
2023/04/17 09:16:06;;;;;;;38.53;19.92;;;12.00;99.90;;;;;;5053584;28;20049;-79
2023/04/17 09:18:32;;;;;;;;;;;12.10;99.90;;;;;;5038097;28;20088;-77
2023/04/17 09:20:59;;;;;;;38.95;19.70;;;12.30;99.90;;;;;;5055563;28;19971;-78
2023/04/17 09:23:27;;;;;;;41.13;20.40;;;12.30;99.90;;;;;;5053886;28;20404;-75
2023/04/17 09:26:09;;;;;;;37.42;19.77;;;12.20;99.90;;;;;;5052845;28;20501;-78
2023/04/17 09:28:38;;;;;;;40.10;21.75;;;12.20;99.90;;;;;;5053563;28;20091;-77
2023/04/17 09:31:05;;;;;;;37.40;19.60;;;12.10;99.90;;;;;;5053280;28;20044;-78
2023/04/17 09:33:31;;;;;;;38.90;20.15;;;12.30;99.90;;;;;;5055530;28;20115;-78
2023/04/17 09:36:20;;;;;;;35.85;18.95;;;12.30;99.90;;;;;;5055859;28;20081;-81
2023/04/17 09:38:46;;;;;;;41.13;22.80;;;12.40;99.90;;;;;;5057802;28;20139;-78
2023/04/17 09:41:26;;;;;;;43.10;22.92;;;12.10;99.90;;;;;;5058387;28;20393;-77
2023/04/17 09:44:00;;;;;;;41.33;20.23;;;12.30;99.90;;;;;;5060046;28;20044;-78
2023/04/17 09:46:46;;;;;;;37.63;20.30;;;12.40;99.90;;;;;;5062445;28;20045;-79
2023/04/17 09:49:24;;;;;;;39.75;23.48;;;12.80;99.90;;;;;;5059272;28;20137;-80
2023/04/17 09:51:51;;;;;;;41.30;22.95;;;12.60;99.90;;;;;;5064392;28;20041;-78
2023/04/17 09:54:19;;;;;;;39.42;22.30;;;12.40;99.90;;;;;;5061772;28;20049;-77
2023/04/17 09:56:48;;;;;;;42.40;20.85;;;12.40;99.90;;;;;;5061314;28;20053;-78
2023/04/17 09:59:15;;;;;;;43.55;24.05;;;12.60;99.90;;;;;;5064683;28;20041;-80
2023/04/17 10:01:42;;;;;;;42.25;23.02;;;12.30;99.90;;;;;;5064183;28;20374;-80
2023/04/17 10:04:07;;;;;;;43.42;22.95;;;12.40;99.90;;;;;;5064177;28;20481;-79
2023/04/17 10:06:34;;;;;;;42.50;24.80;;;12.60;99.90;;;;;;5064293;28;20056;-79
2023/04/17 10:09:03;;;;;;;38.15;20.85;;;12.60;99.90;;;;;;5060729;28;20111;-78
2023/04/17 10:11:37;;;;;;;44.28;23.33;;;12.80;99.90;;;;;;5061353;28;20124;-80
2023/04/17 10:14:10;;;;;;;38.97;21.77;;;12.80;99.90;;;;;;5059512;28;20041;-79
2023/04/17 10:16:42;;;;;;;47.22;23.67;;;13.10;99.90;;;;;;5055901;28;20053;-77
2023/04/17 10:19:32;;;;;;;41.40;25.17;;;13.40;99.90;;;;;;5055475;28;20049;-80
2023/04/17 10:22:18;;;;;;;42.00;23.27;;;13.30;99.90;;;;;;5054789;28;20045;-81
2023/04/17 10:24:50;;;;;;;41.13;23.05;;;13.30;99.90;;;;;;5056040;28;20052;-80
2023/04/17 10:27:45;;;;;;;41.30;24.73;;;13.40;99.90;;;;;;5055049;28;20490;-81
2023/04/17 10:30:12;;;;;;;44.17;24.33;;;13.00;99.90;;;;;;5053066;28;20053;-79
2023/04/17 10:32:40;;;;;;;41.83;23.17;;;13.10;99.90;;;;;;5055207;28;20091;-80
2023/04/17 10:35:15;;;;;;;41.50;22.55;;;13.20;99.90;;;;;;5054969;28;20378;-81
2023/04/17 10:37:49;;;;;;;39.85;21.15;;;13.20;99.90;;;;;;5053667;28;20124;-79
2023/04/17 10:40:32;;;;;;;37.13;20.48;;;13.30;99.90;;;;;;5054034;28;20386;-80
2023/04/17 10:43:19;;;;;;;39.80;24.35;;;13.50;99.90;;;;;;5036719;28;20045;-78
2023/04/17 10:46:04;;;;;;;35.17;21.10;;;13.70;99.90;;;;;;5054066;28;20045;-78
2023/04/17 10:48:31;;;;;;;34.50;20.23;;;14.00;99.90;;;;;;5053743;28;20127;-78
2023/04/17 10:50:58;;;;;;;33.85;20.63;;;14.30;99.90;;;;;;5055339;28;20048;-79
2023/04/17 10:53:40;;;;;;;33.55;20.27;;;14.60;99.90;;;;;;5053437;28;20131;-80
2023/04/17 10:56:08;;;;;;;34.65;19.13;;;14.80;99.90;;;;;;5057253;28;20095;-81
2023/04/17 10:58:37;;;;;;;31.15;17.48;;;14.70;99.90;;;;;;5056712;28;20044;-80
2023/04/17 11:01:09;;;;;;;31.27;18.73;;;14.70;99.90;;;;;;5056717;28;20071;-80
2023/04/17 11:03:38;;;;;;;27.67;16.98;;;14.30;99.90;;;;;;5062011;28;20049;-84
2023/04/17 11:06:05;;;;;;;28.15;15.82;;;14.50;99.90;;;;;;5056183;28;20127;-79
2023/04/17 11:08:31;;;;;;;26.17;16.25;;;14.50;99.90;;;;;;5053965;28;20053;-81
2023/04/17 11:10:56;;;;;;;28.63;16.92;;;14.60;99.90;;;;;;5054649;28;20187;-76
2023/04/17 11:13:22;;;;;;;23.83;14.85;;;14.40;99.90;;;;;;5056305;28;20104;-76
2023/04/17 11:15:49;;;;;;;26.08;14.68;;;14.40;99.90;;;;;;5054278;28;20049;-81
2023/04/17 11:18:15;;;;;;;;;;;14.40;99.90;;;;;;5057462;28;20053;-82
2023/04/17 11:20:41;;;;;;;26.50;15.17;;;14.40;99.90;;;;;;5058778;28;19979;-79
2023/04/17 11:23:09;;;;;;;22.80;13.70;;;15.40;99.90;;;;;;5054450;28;20102;-78
2023/04/17 11:25:36;;;;;;;19.50;11.80;;;14.90;99.90;;;;;;5054868;28;20435;-79
2023/04/17 11:28:05;;;;;;;25.25;14.77;;;15.30;99.90;;;;;;5054730;28;20106;-77
2023/04/17 11:30:39;;;;;;;23.10;14.20;;;14.90;99.90;;;;;;5055388;28;20048;-80
2023/04/17 11:33:06;;;;;;;22.85;13.20;;;15.10;99.90;;;;;;5057660;28;20106;-81
2023/04/17 11:35:37;;;;;;;29.08;14.07;;;15.10;99.90;;;;;;5058327;28;20047;-81
2023/04/17 11:38:07;;;;;;;21.05;13.38;;;14.80;99.90;;;;;;5038726;28;20099;-81
2023/04/17 11:40:33;;;;;;;23.58;13.27;;;15.10;99.90;;;;;;5054450;28;20485;-81
2023/04/17 11:43:06;;;;;;;22.92;14.02;;;15.20;99.90;;;;;;5057678;28;20056;-82
2023/04/17 11:45:33;;;;;;;24.20;14.57;;;15.10;99.90;;;;;;5055443;28;20498;-84
2023/04/17 11:48:01;;;;;;;22.30;13.18;;;15.20;99.90;;;;;;5055673;28;20470;-76
2023/04/17 11:50:31;;;;;;;21.02;13.07;;;15.40;99.90;;;;;;5058145;28;20041;-80
2023/04/17 11:53:01;;;;;;;19.48;12.90;;;15.80;99.90;;;;;;5059196;28;20049;-81
2023/04/17 11:55:30;;;;;;;22.90;12.77;;;15.90;99.90;;;;;;5061991;28;20060;-79
2023/04/17 11:58:06;;;;;;;20.02;12.55;;;16.20;99.90;;;;;;5059775;28;20049;-76
2023/04/17 12:00:33;;;;;;;18.67;11.50;;;16.50;99.90;;;;;;5057174;28;20127;-79
2023/04/17 12:03:01;;;;;;;17.15;10.48;;;16.60;99.90;;;;;;5057773;28;20124;-78
2023/04/17 12:05:28;;;;;;;19.80;12.45;;;16.50;99.90;;;;;;5059412;28;20100;-79
2023/04/17 12:08:00;;;;;;;19.27;12.93;;;16.00;99.90;;;;;;5059984;28;20101;-81
2023/04/17 12:10:40;;;;;;;19.33;11.70;;;15.40;99.90;;;;;;5058584;28;20069;-81
2023/04/17 12:13:07;;;;;;;21.55;11.73;;;15.50;99.90;;;;;;5059201;28;20091;-78
2023/04/17 12:15:34;;;;;;;16.38;10.63;;;15.70;99.90;;;;;;5057218;28;20049;-79
2023/04/17 12:18:04;;;;;;;20.25;11.32;;;15.70;99.90;;;;;;5041949;28;20077;-81
2023/04/17 12:20:31;;;;;;;17.38;10.68;;;15.60;99.90;;;;;;5059751;28;20438;-81
2023/04/17 12:22:57;;;;;;;18.77;11.93;;;15.40;99.90;;;;;;5058488;28;20049;-78
2023/04/17 12:25:23;;;;;;;21.15;11.68;;;15.20;99.90;;;;;;5060127;28;20049;-81
2023/04/17 12:27:48;;;;;;;21.00;11.82;;;15.20;99.90;;;;;;5060159;28;20049;-80
2023/04/17 12:30:15;;;;;;;22.10;12.48;;;15.50;99.90;;;;;;5060448;28;20051;-81
2023/04/17 12:32:42;;;;;;;21.55;10.95;;;15.70;99.90;;;;;;5060023;28;20132;-78
2023/04/17 12:35:08;;;;;;;19.25;11.43;;;15.90;99.90;;;;;;5060246;28;20079;-80
2023/04/17 12:37:34;;;;;;;18.60;10.07;;;16.10;99.90;;;;;;5058157;28;20041;-78